General Aviation Weather

Text Reports

Enter one or more of the following location identifiers separated by a space:

Zip Code, Four-Character ICAO or Three-Character IATA airport codes.

METAR - Aviation Routine Weather Report
KISO - Kinston, North Carolina
Updated at 11:56 AM GMT on February 01, 2015 (6:56 AM EST):
METAR KISO 011156Z 19005KT 10SM CLR 02/M04 A3029 RMK AO2
TAF - Terminal Area Forecast
KISO - Kinston, North Carolina
Updated at 11:56 AM GMT on February 01, 2015 (6:56 AM EST):
No TAF is currently available for this location.
Decoded:
No decoded TAF is available.
PIREP - Pilot Weather Report
KISO - Kinston, North Carolina
Updated at 11:56 AM GMT on February 01, 2015 (6:56 AM EST):
No PIREP is currently available for this location.
AIRMET - Airmens Meteorological Information
KISO - Kinston, North Carolina
Updated at 11:56 AM GMT on February 01, 2015 (6:56 AM EST):
No AIRMET is currently available for this location.
SIGMET - Significant Meteorological Information
KISO - Kinston, North Carolina
Updated at 11:56 AM GMT on February 01, 2015 (6:56 AM EST):
No SIGMET is currently available for this location.
NOTAM - Notice to Airmen
KISO - Kinston, North Carolina
Updated at 11:56 AM GMT on February 01, 2015 (6:56 AM EST):
No NOTAM is currently available for this location.
Forecast Area
KISO - Kinston, North Carolina
Updated at 11:56 AM GMT on February 01, 2015 (6:56 AM EST):
No NOTAM is currently available for this location.
Aviation Weather Maps